sensor_id;sensor_type;location;lat;lon;timestamp;temperature;humidity
6114;DHT22;3087;48.392;10.836;2022-08-19T00:01:21;22.60;99.90
6114;DHT22;3087;48.392;10.836;2022-08-19T00:03:47;22.60;99.90
6114;DHT22;3087;48.392;10.836;2022-08-19T00:06:14;22.60;99.90
6114;DHT22;3087;48.392;10.836;2022-08-19T00:11:06;22.50;99.90
6114;DHT22;3087;48.392;10.836;2022-08-19T00:13:33;22.50;99.90
6114;DHT22;3087;48.392;10.836;2022-08-19T00:15:59;22.50;99.90
6114;DHT22;3087;48.392;10.836;2022-08-19T00:18:25;22.50;99.90
6114;DHT22;3087;48.392;10.836;2022-08-19T00:20:51;22.50;99.90
6114;DHT22;3087;48.392;10.836;2022-08-19T00:23:17;22.40;99.90
6114;DHT22;3087;48.392;10.836;2022-08-19T00:25:42;22.40;99.90
6114;DHT22;3087;48.392;10.836;2022-08-19T00:28:08;22.50;99.90
6114;DHT22;3087;48.392;10.836;2022-08-19T00:30:33;22.50;99.90
6114;DHT22;3087;48.392;10.836;2022-08-19T00:32:59;22.50;99.90
6114;DHT22;3087;48.392;10.836;2022-08-19T00:37:52;22.10;99.90
6114;DHT22;3087;48.392;10.836;2022-08-19T00:40:19;21.80;99.90
6114;DHT22;3087;48.392;10.836;2022-08-19T00:42:45;21.60;99.90
6114;DHT22;3087;48.392;10.836;2022-08-19T00:45:20;21.60;99.90
6114;DHT22;3087;48.392;10.836;2022-08-19T00:47:46;21.60;99.90
6114;DHT22;3087;48.392;10.836;2022-08-19T00:50:15;21.50;99.90
6114;DHT22;3087;48.392;10.836;2022-08-19T00:52:45;21.30;99.90
6114;DHT22;3087;48.392;10.836;2022-08-19T00:55:29;21.20;99.90
6114;DHT22;3087;48.392;10.836;2022-08-19T00:58:02;21.20;99.90
6114;DHT22;3087;48.392;10.836;2022-08-19T01:00:31;21.30;99.90
6114;DHT22;3087;48.392;10.836;2022-08-19T01:02:57;21.30;99.90
6114;DHT22;3087;48.392;10.836;2022-08-19T01:05:26;21.40;99.90
6114;DHT22;3087;48.392;10.836;2022-08-19T01:07:58;21.40;99.90
6114;DHT22;3087;48.392;10.836;2022-08-19T01:10:27;21.40;99.90
6114;DHT22;3087;48.392;10.836;2022-08-19T01:12:55;21.50;99.90
6114;DHT22;3087;48.392;10.836;2022-08-19T01:15:29;21.60;99.90
6114;DHT22;3087;48.392;10.836;2022-08-19T01:17:55;21.60;99.90
6114;DHT22;3087;48.392;10.836;2022-08-19T01:20:24;21.60;99.90
6114;DHT22;3087;48.392;10.836;2022-08-19T01:22:53;21.60;99.90
6114;DHT22;3087;48.392;10.836;2022-08-19T01:25:26;21.60;99.90
6114;DHT22;3087;48.392;10.836;2022-08-19T01:30:23;21.60;99.90
6114;DHT22;3087;48.392;10.836;2022-08-19T01:32:50;21.60;99.90
6114;DHT22;3087;48.392;10.836;2022-08-19T01:35:17;21.60;99.90
6114;DHT22;3087;48.392;10.836;2022-08-19T01:37:56;21.60;99.90
6114;DHT22;3087;48.392;10.836;2022-08-19T01:40:25;21.70;99.90
6114;DHT22;3087;48.392;10.836;2022-08-19T01:45:21;21.70;99.90
6114;DHT22;3087;48.392;10.836;2022-08-19T01:47:48;21.70;99.90
6114;DHT22;3087;48.392;10.836;2022-08-19T01:50:14;21.80;99.90
6114;DHT22;3087;48.392;10.836;2022-08-19T01:52:41;21.80;99.90
6114;DHT22;3087;48.392;10.836;2022-08-19T01:55:10;21.70;99.90
6114;DHT22;3087;48.392;10.836;2022-08-19T01:57:37;21.80;99.90
6114;DHT22;3087;48.392;10.836;2022-08-19T02:00:07;21.80;99.90
6114;DHT22;3087;48.392;10.836;2022-08-19T02:02:33;21.70;99.90
6114;DHT22;3087;48.392;10.836;2022-08-19T02:04:59;21.70;99.90
6114;DHT22;3087;48.392;10.836;2022-08-19T02:07:25;21.70;99.90
6114;DHT22;3087;48.392;10.836;2022-08-19T02:09:50;21.60;99.90
6114;DHT22;3087;48.392;10.836;2022-08-19T02:12:16;21.50;99.90
6114;DHT22;3087;48.392;10.836;2022-08-19T02:14:42;21.60;99.90
6114;DHT22;3087;48.392;10.836;2022-08-19T02:17:08;21.60;99.90
6114;DHT22;3087;48.392;10.836;2022-08-19T02:19:33;21.50;99.90
6114;DHT22;3087;48.392;10.836;2022-08-19T02:21:59;21.50;99.90
6114;DHT22;3087;48.392;10.836;2022-08-19T02:24:26;21.50;99.90
6114;DHT22;3087;48.392;10.836;2022-08-19T02:26:52;21.40;99.90
6114;DHT22;3087;48.392;10.836;2022-08-19T02:29:18;21.40;99.90
6114;DHT22;3087;48.392;10.836;2022-08-19T02:31:44;21.40;99.90
6114;DHT22;3087;48.392;10.836;2022-08-19T02:34:10;21.40;99.90
6114;DHT22;3087;48.392;10.836;2022-08-19T02:36:36;21.50;99.90
6114;DHT22;3087;48.392;10.836;2022-08-19T02:39:02;21.40;99.90
6114;DHT22;3087;48.392;10.836;2022-08-19T02:41:32;21.50;99.90
6114;DHT22;3087;48.392;10.836;2022-08-19T02:44:00;21.50;99.90
6114;DHT22;3087;48.392;10.836;2022-08-19T02:46:28;21.50;99.90
6114;DHT22;3087;48.392;10.836;2022-08-19T02:48:57;21.40;99.90
6114;DHT22;3087;48.392;10.836;2022-08-19T02:51:26;21.20;99.90
6114;DHT22;3087;48.392;10.836;2022-08-19T02:53:52;21.10;99.90
6114;DHT22;3087;48.392;10.836;2022-08-19T02:56:20;20.90;99.90
6114;DHT22;3087;48.392;10.836;2022-08-19T02:58:46;20.80;99.90
6114;DHT22;3087;48.392;10.836;2022-08-19T03:01:21;20.60;99.90
6114;DHT22;3087;48.392;10.836;2022-08-19T03:03:47;20.50;99.90
6114;DHT22;3087;48.392;10.836;2022-08-19T03:06:15;20.60;99.90
6114;DHT22;3087;48.392;10.836;2022-08-19T03:08:43;20.50;99.90
6114;DHT22;3087;48.392;10.836;2022-08-19T03:11:17;20.70;99.90
6114;DHT22;3087;48.392;10.836;2022-08-19T03:13:44;20.70;99.90
6114;DHT22;3087;48.392;10.836;2022-08-19T03:16:11;20.80;99.90
6114;DHT22;3087;48.392;10.836;2022-08-19T03:18:37;20.90;99.90
6114;DHT22;3087;48.392;10.836;2022-08-19T03:21:03;21.00;99.90
6114;DHT22;3087;48.392;10.836;2022-08-19T03:23:28;21.10;99.90
6114;DHT22;3087;48.392;10.836;2022-08-19T03:25:54;21.20;99.90
6114;DHT22;3087;48.392;10.836;2022-08-19T03:28:20;21.30;99.90
6114;DHT22;3087;48.392;10.836;2022-08-19T03:31:02;21.30;99.90
6114;DHT22;3087;48.392;10.836;2022-08-19T03:33:29;21.40;99.90
6114;DHT22;3087;48.392;10.836;2022-08-19T03:36:04;21.40;99.90
6114;DHT22;3087;48.392;10.836;2022-08-19T03:38:31;21.50;99.90
6114;DHT22;3087;48.392;10.836;2022-08-19T03:40:57;21.50;99.90
6114;DHT22;3087;48.392;10.836;2022-08-19T03:43:23;21.60;99.90
6114;DHT22;3087;48.392;10.836;2022-08-19T03:46:03;21.60;99.90
6114;DHT22;3087;48.392;10.836;2022-08-19T03:48:30;21.60;99.90
6114;DHT22;3087;48.392;10.836;2022-08-19T03:50:56;21.70;99.90
6114;DHT22;3087;48.392;10.836;2022-08-19T03:53:23;21.70;99.90
6114;DHT22;3087;48.392;10.836;2022-08-19T03:55:49;21.60;99.90
6114;DHT22;3087;48.392;10.836;2022-08-19T03:58:14;21.60;99.90
6114;DHT22;3087;48.392;10.836;2022-08-19T04:00:42;21.70;99.90
6114;DHT22;3087;48.392;10.836;2022-08-19T04:03:08;21.70;99.90
6114;DHT22;3087;48.392;10.836;2022-08-19T04:05:34;21.70;99.90
6114;DHT22;3087;48.392;10.836;2022-08-19T04:08:00;21.70;99.90
6114;DHT22;3087;48.392;10.836;2022-08-19T04:10:26;21.80;99.90
6114;DHT22;3087;48.392;10.836;2022-08-19T04:12:53;21.80;99.90
6114;DHT22;3087;48.392;10.836;2022-08-19T04:15:19;21.80;99.90
6114;DHT22;3087;48.392;10.836;2022-08-19T04:17:46;21.80;99.90
6114;DHT22;3087;48.392;10.836;2022-08-19T04:20:12;21.80;99.90
6114;DHT22;3087;48.392;10.836;2022-08-19T04:22:37;21.80;99.90
6114;DHT22;3087;48.392;10.836;2022-08-19T04:25:03;21.80;99.90
6114;DHT22;3087;48.392;10.836;2022-08-19T04:27:29;21.80;99.90
6114;DHT22;3087;48.392;10.836;2022-08-19T04:29:57;21.80;99.90
6114;DHT22;3087;48.392;10.836;2022-08-19T04:32:22;21.70;99.90
6114;DHT22;3087;48.392;10.836;2022-08-19T04:34:48;21.70;99.90
6114;DHT22;3087;48.392;10.836;2022-08-19T04:37:13;21.80;99.90
6114;DHT22;3087;48.392;10.836;2022-08-19T04:39:39;21.80;99.90
6114;DHT22;3087;48.392;10.836;2022-08-19T04:42:28;21.80;99.90
6114;DHT22;3087;48.392;10.836;2022-08-19T04:45:11;21.90;99.90
6114;DHT22;3087;48.392;10.836;2022-08-19T04:47:38;21.90;99.90
6114;DHT22;3087;48.392;10.836;2022-08-19T04:50:05;21.90;99.90
6114;DHT22;3087;48.392;10.836;2022-08-19T04:52:31;21.80;99.90
6114;DHT22;3087;48.392;10.836;2022-08-19T04:54:57;21.90;99.90
6114;DHT22;3087;48.392;10.836;2022-08-19T04:57:23;21.90;99.90
6114;DHT22;3087;48.392;10.836;2022-08-19T04:59:54;21.90;99.90
6114;DHT22;3087;48.392;10.836;2022-08-19T05:02:20;21.90;99.90
6114;DHT22;3087;48.392;10.836;2022-08-19T05:04:48;21.90;99.90
6114;DHT22;3087;48.392;10.836;2022-08-19T05:07:13;21.90;99.90
6114;DHT22;3087;48.392;10.836;2022-08-19T05:09:39;21.90;99.90
6114;DHT22;3087;48.392;10.836;2022-08-19T05:12:05;21.90;99.90
6114;DHT22;3087;48.392;10.836;2022-08-19T05:14:31;21.80;99.90
6114;DHT22;3087;48.392;10.836;2022-08-19T05:16:57;21.70;99.90
6114;DHT22;3087;48.392;10.836;2022-08-19T05:19:22;21.80;99.90
6114;DHT22;3087;48.392;10.836;2022-08-19T05:22:06;21.70;99.90
6114;DHT22;3087;48.392;10.836;2022-08-19T05:24:50;21.80;99.90
6114;DHT22;3087;48.392;10.836;2022-08-19T05:27:16;21.80;99.90
6114;DHT22;3087;48.392;10.836;2022-08-19T05:29:41;21.80;99.90
6114;DHT22;3087;48.392;10.836;2022-08-19T05:32:07;21.90;99.90
6114;DHT22;3087;48.392;10.836;2022-08-19T05:34:34;21.90;99.90
6114;DHT22;3087;48.392;10.836;2022-08-19T05:37:01;21.90;99.90
6114;DHT22;3087;48.392;10.836;2022-08-19T05:39:29;21.80;99.90
6114;DHT22;3087;48.392;10.836;2022-08-19T05:41:58;21.80;99.90
6114;DHT22;3087;48.392;10.836;2022-08-19T05:44:26;21.90;99.90
6114;DHT22;3087;48.392;10.836;2022-08-19T05:46:53;21.80;99.90
6114;DHT22;3087;48.392;10.836;2022-08-19T05:49:22;21.80;99.90
6114;DHT22;3087;48.392;10.836;2022-08-19T05:51:48;21.70;99.90
6114;DHT22;3087;48.392;10.836;2022-08-19T05:54:14;21.70;99.90
6114;DHT22;3087;48.392;10.836;2022-08-19T05:56:41;21.70;99.90
6114;DHT22;3087;48.392;10.836;2022-08-19T05:59:08;21.80;99.90
6114;DHT22;3087;48.392;10.836;2022-08-19T06:01:41;21.80;99.90
6114;DHT22;3087;48.392;10.836;2022-08-19T06:04:08;21.80;99.90
6114;DHT22;3087;48.392;10.836;2022-08-19T06:06:35;21.80;99.90
6114;DHT22;3087;48.392;10.836;2022-08-19T06:09:02;21.80;99.90
6114;DHT22;3087;48.392;10.836;2022-08-19T06:11:51;21.80;99.90
6114;DHT22;3087;48.392;10.836;2022-08-19T06:14:22;21.80;99.90
6114;DHT22;3087;48.392;10.836;2022-08-19T06:16:48;21.80;99.90
6114;DHT22;3087;48.392;10.836;2022-08-19T06:19:16;21.80;99.90
6114;DHT22;3087;48.392;10.836;2022-08-19T06:21:44;21.90;99.90
6114;DHT22;3087;48.392;10.836;2022-08-19T06:24:14;22.00;99.90
6114;DHT22;3087;48.392;10.836;2022-08-19T06:26:42;22.00;99.90
6114;DHT22;3087;48.392;10.836;2022-08-19T06:29:10;22.00;99.90
6114;DHT22;3087;48.392;10.836;2022-08-19T06:31:36;22.00;99.90
6114;DHT22;3087;48.392;10.836;2022-08-19T06:34:05;22.00;99.90
6114;DHT22;3087;48.392;10.836;2022-08-19T06:36:33;22.10;99.90
6114;DHT22;3087;48.392;10.836;2022-08-19T06:39:05;22.00;99.90
6114;DHT22;3087;48.392;10.836;2022-08-19T06:41:35;22.00;99.90
6114;DHT22;3087;48.392;10.836;2022-08-19T06:44:01;22.00;99.90
6114;DHT22;3087;48.392;10.836;2022-08-19T06:46:27;20.70;99.90
6114;DHT22;3087;48.392;10.836;2022-08-19T06:48:53;22.00;99.90
6114;DHT22;3087;48.392;10.836;2022-08-19T06:51:20;21.90;99.90
6114;DHT22;3087;48.392;10.836;2022-08-19T06:53:48;22.00;99.90
6114;DHT22;3087;48.392;10.836;2022-08-19T06:56:23;21.90;99.90
6114;DHT22;3087;48.392;10.836;2022-08-19T06:58:50;21.90;99.90
6114;DHT22;3087;48.392;10.836;2022-08-19T07:01:19;21.90;99.90
6114;DHT22;3087;48.392;10.836;2022-08-19T07:03:45;21.90;99.90
6114;DHT22;3087;48.392;10.836;2022-08-19T07:06:14;21.80;99.90
6114;DHT22;3087;48.392;10.836;2022-08-19T07:08:47;21.80;99.90
6114;DHT22;3087;48.392;10.836;2022-08-19T07:11:15;21.80;99.90
6114;DHT22;3087;48.392;10.836;2022-08-19T07:13:42;21.80;99.90
6114;DHT22;3087;48.392;10.836;2022-08-19T07:16:19;21.80;99.90
6114;DHT22;3087;48.392;10.836;2022-08-19T07:18:46;21.80;99.90
6114;DHT22;3087;48.392;10.836;2022-08-19T07:21:25;21.90;99.90
6114;DHT22;3087;48.392;10.836;2022-08-19T07:23:59;21.90;99.90
6114;DHT22;3087;48.392;10.836;2022-08-19T07:26:28;22.00;99.90
6114;DHT22;3087;48.392;10.836;2022-08-19T07:28:55;21.90;99.90
6114;DHT22;3087;48.392;10.836;2022-08-19T07:31:23;21.90;99.90
6114;DHT22;3087;48.392;10.836;2022-08-19T07:33:51;21.80;99.90
6114;DHT22;3087;48.392;10.836;2022-08-19T07:36:20;21.90;99.90
6114;DHT22;3087;48.392;10.836;2022-08-19T07:38:48;21.90;99.90
6114;DHT22;3087;48.392;10.836;2022-08-19T07:41:17;22.00;99.90
6114;DHT22;3087;48.392;10.836;2022-08-19T07:43:43;22.00;99.90
6114;DHT22;3087;48.392;10.836;2022-08-19T07:46:10;22.00;99.90
6114;DHT22;3087;48.392;10.836;2022-08-19T07:48:37;22.00;99.90
6114;DHT22;3087;48.392;10.836;2022-08-19T07:51:05;22.00;99.90
6114;DHT22;3087;48.392;10.836;2022-08-19T07:53:34;22.00;99.90
6114;DHT22;3087;48.392;10.836;2022-08-19T07:56:00;22.00;99.90
6114;DHT22;3087;48.392;10.836;2022-08-19T07:58:34;22.00;99.90
6114;DHT22;3087;48.392;10.836;2022-08-19T08:01:00;22.00;99.90
6114;DHT22;3087;48.392;10.836;2022-08-19T08:03:28;22.00;99.90
6114;DHT22;3087;48.392;10.836;2022-08-19T08:06:14;22.00;99.90
6114;DHT22;3087;48.392;10.836;2022-08-19T08:08:59;22.00;99.90
6114;DHT22;3087;48.392;10.836;2022-08-19T08:11:55;22.00;99.90
6114;DHT22;3087;48.392;10.836;2022-08-19T08:14:47;22.00;99.90
6114;DHT22;3087;48.392;10.836;2022-08-19T08:17:18;21.90;99.90
6114;DHT22;3087;48.392;10.836;2022-08-19T08:19:45;21.90;99.90
6114;DHT22;3087;48.392;10.836;2022-08-19T08:22:15;21.90;99.90
6114;DHT22;3087;48.392;10.836;2022-08-19T08:25:06;21.90;99.90
6114;DHT22;3087;48.392;10.836;2022-08-19T08:27:36;21.90;99.90
6114;DHT22;3087;48.392;10.836;2022-08-19T08:30:06;22.00;99.90
6114;DHT22;3087;48.392;10.836;2022-08-19T08:32:35;22.00;99.90
6114;DHT22;3087;48.392;10.836;2022-08-19T08:35:01;22.00;99.90
6114;DHT22;3087;48.392;10.836;2022-08-19T08:37:26;22.00;99.90
6114;DHT22;3087;48.392;10.836;2022-08-19T08:39:52;22.10;99.90
6114;DHT22;3087;48.392;10.836;2022-08-19T08:42:31;22.10;99.90
6114;DHT22;3087;48.392;10.836;2022-08-19T08:45:00;22.00;99.90
6114;DHT22;3087;48.392;10.836;2022-08-19T08:47:32;22.00;99.90
6114;DHT22;3087;48.392;10.836;2022-08-19T08:50:06;22.00;99.90
6114;DHT22;3087;48.392;10.836;2022-08-19T08:52:39;22.00;99.90
6114;DHT22;3087;48.392;10.836;2022-08-19T08:55:13;22.10;99.90
6114;DHT22;3087;48.392;10.836;2022-08-19T09:00:32;22.10;99.90
6114;DHT22;3087;48.392;10.836;2022-08-19T09:03:00;22.10;99.90
6114;DHT22;3087;48.392;10.836;2022-08-19T09:08:17;22.10;99.90
6114;DHT22;3087;48.392;10.836;2022-08-19T09:10:54;22.10;99.90
6114;DHT22;3087;48.392;10.836;2022-08-19T09:16:20;22.10;99.90
6114;DHT22;3087;48.392;10.836;2022-08-19T09:18:49;22.10;99.90
6114;DHT22;3087;48.392;10.836;2022-08-19T09:21:19;22.20;99.90
6114;DHT22;3087;48.392;10.836;2022-08-19T09:23:45;22.20;99.90
6114;DHT22;3087;48.392;10.836;2022-08-19T09:26:14;22.20;99.90
6114;DHT22;3087;48.392;10.836;2022-08-19T09:28:42;22.20;99.90
6114;DHT22;3087;48.392;10.836;2022-08-19T09:31:10;22.20;99.90
6114;DHT22;3087;48.392;10.836;2022-08-19T09:33:36;22.20;99.90
6114;DHT22;3087;48.392;10.836;2022-08-19T09:36:07;22.30;99.90
6114;DHT22;3087;48.392;10.836;2022-08-19T09:38:35;22.30;99.90
6114;DHT22;3087;48.392;10.836;2022-08-19T09:41:05;22.30;99.90
6114;DHT22;3087;48.392;10.836;2022-08-19T09:43:32;22.30;99.90
6114;DHT22;3087;48.392;10.836;2022-08-19T09:46:02;22.30;99.90
6114;DHT22;3087;48.392;10.836;2022-08-19T09:48:28;22.30;99.90
6114;DHT22;3087;48.392;10.836;2022-08-19T09:50:54;22.30;99.90
6114;DHT22;3087;48.392;10.836;2022-08-19T09:53:20;22.30;99.90
6114;DHT22;3087;48.392;10.836;2022-08-19T09:55:47;22.30;99.90
6114;DHT22;3087;48.392;10.836;2022-08-19T09:58:13;22.30;99.90
6114;DHT22;3087;48.392;10.836;2022-08-19T10:00:39;22.30;99.90
6114;DHT22;3087;48.392;10.836;2022-08-19T10:03:04;22.30;99.90
6114;DHT22;3087;48.392;10.836;2022-08-19T10:05:30;22.30;99.90
6114;DHT22;3087;48.392;10.836;2022-08-19T10:08:18;22.30;99.90
6114;DHT22;3087;48.392;10.836;2022-08-19T10:10:45;22.20;99.90
6114;DHT22;3087;48.392;10.836;2022-08-19T10:13:12;22.20;99.90
6114;DHT22;3087;48.392;10.836;2022-08-19T10:15:37;22.20;99.90
6114;DHT22;3087;48.392;10.836;2022-08-19T10:18:05;22.10;99.90
6114;DHT22;3087;48.392;10.836;2022-08-19T10:20:31;22.10;99.90
6114;DHT22;3087;48.392;10.836;2022-08-19T10:22:57;22.00;99.90
6114;DHT22;3087;48.392;10.836;2022-08-19T10:25:25;22.00;99.90
6114;DHT22;3087;48.392;10.836;2022-08-19T10:27:52;21.80;99.90
6114;DHT22;3087;48.392;10.836;2022-08-19T10:30:18;21.70;99.90
6114;DHT22;3087;48.392;10.836;2022-08-19T10:32:44;21.70;99.90
6114;DHT22;3087;48.392;10.836;2022-08-19T10:35:11;21.60;99.90
6114;DHT22;3087;48.392;10.836;2022-08-19T10:37:38;21.50;99.90
6114;DHT22;3087;48.392;10.836;2022-08-19T10:40:08;21.40;99.90
6114;DHT22;3087;48.392;10.836;2022-08-19T10:42:35;21.40;99.90
6114;DHT22;3087;48.392;10.836;2022-08-19T10:45:03;21.40;99.90
6114;DHT22;3087;48.392;10.836;2022-08-19T10:47:29;21.30;99.90
6114;DHT22;3087;48.392;10.836;2022-08-19T10:49:55;21.20;99.90
6114;DHT22;3087;48.392;10.836;2022-08-19T10:52:41;21.20;99.90
6114;DHT22;3087;48.392;10.836;2022-08-19T10:55:08;21.20;99.90
6114;DHT22;3087;48.392;10.836;2022-08-19T10:57:52;21.20;99.90
6114;DHT22;3087;48.392;10.836;2022-08-19T11:00:19;21.20;99.90
6114;DHT22;3087;48.392;10.836;2022-08-19T11:02:45;21.20;99.90
6114;DHT22;3087;48.392;10.836;2022-08-19T11:05:11;21.20;99.90
6114;DHT22;3087;48.392;10.836;2022-08-19T11:07:41;21.20;99.90
6114;DHT22;3087;48.392;10.836;2022-08-19T11:10:08;21.20;99.90
6114;DHT22;3087;48.392;10.836;2022-08-19T11:12:36;21.00;99.90
6114;DHT22;3087;48.392;10.836;2022-08-19T11:15:06;20.80;99.90
6114;DHT22;3087;48.392;10.836;2022-08-19T11:17:34;20.70;99.90
6114;DHT22;3087;48.392;10.836;2022-08-19T11:20:02;20.70;99.90
6114;DHT22;3087;48.392;10.836;2022-08-19T11:22:30;20.60;99.90
6114;DHT22;3087;48.392;10.836;2022-08-19T11:24:55;20.20;99.90
6114;DHT22;3087;48.392;10.836;2022-08-19T11:27:21;19.90;99.90
6114;DHT22;3087;48.392;10.836;2022-08-19T11:29:47;19.60;99.90
6114;DHT22;3087;48.392;10.836;2022-08-19T11:32:12;19.40;99.90
6114;DHT22;3087;48.392;10.836;2022-08-19T11:34:39;19.30;99.90
6114;DHT22;3087;48.392;10.836;2022-08-19T11:37:05;19.10;99.90
6114;DHT22;3087;48.392;10.836;2022-08-19T11:39:32;18.90;99.90
6114;DHT22;3087;48.392;10.836;2022-08-19T11:41:59;18.80;99.90
6114;DHT22;3087;48.392;10.836;2022-08-19T11:44:25;18.70;99.90
6114;DHT22;3087;48.392;10.836;2022-08-19T11:46:51;18.90;99.90
6114;DHT22;3087;48.392;10.836;2022-08-19T11:49:19;19.00;99.90
6114;DHT22;3087;48.392;10.836;2022-08-19T11:51:45;19.10;99.90
6114;DHT22;3087;48.392;10.836;2022-08-19T11:54:12;19.10;99.90
6114;DHT22;3087;48.392;10.836;2022-08-19T11:56:39;19.20;99.90
6114;DHT22;3087;48.392;10.836;2022-08-19T11:59:05;19.20;99.90
6114;DHT22;3087;48.392;10.836;2022-08-19T12:01:31;19.20;99.90
6114;DHT22;3087;48.392;10.836;2022-08-19T12:03:57;19.20;99.90
6114;DHT22;3087;48.392;10.836;2022-08-19T12:06:27;19.20;99.90
6114;DHT22;3087;48.392;10.836;2022-08-19T12:08:55;19.30;99.90
6114;DHT22;3087;48.392;10.836;2022-08-19T12:11:21;19.30;99.90
6114;DHT22;3087;48.392;10.836;2022-08-19T12:13:46;19.30;99.90
6114;DHT22;3087;48.392;10.836;2022-08-19T12:16:25;19.30;99.90
6114;DHT22;3087;48.392;10.836;2022-08-19T12:18:52;19.40;99.90
6114;DHT22;3087;48.392;10.836;2022-08-19T12:21:24;19.40;99.90
6114;DHT22;3087;48.392;10.836;2022-08-19T12:23:54;19.40;99.90
6114;DHT22;3087;48.392;10.836;2022-08-19T12:26:20;19.40;99.90
6114;DHT22;3087;48.392;10.836;2022-08-19T12:28:46;19.40;99.90
6114;DHT22;3087;48.392;10.836;2022-08-19T12:31:13;19.50;99.90
6114;DHT22;3087;48.392;10.836;2022-08-19T12:33:40;19.50;99.90
6114;DHT22;3087;48.392;10.836;2022-08-19T12:36:09;19.50;99.90
6114;DHT22;3087;48.392;10.836;2022-08-19T12:38:36;19.60;99.90
6114;DHT22;3087;48.392;10.836;2022-08-19T12:41:02;19.60;99.90
6114;DHT22;3087;48.392;10.836;2022-08-19T12:43:35;19.70;99.90
6114;DHT22;3087;48.392;10.836;2022-08-19T12:46:01;19.70;99.90
6114;DHT22;3087;48.392;10.836;2022-08-19T12:48:27;19.70;99.90
6114;DHT22;3087;48.392;10.836;2022-08-19T12:50:54;19.70;99.90
6114;DHT22;3087;48.392;10.836;2022-08-19T12:53:20;19.70;99.90
6114;DHT22;3087;48.392;10.836;2022-08-19T12:55:45;19.80;99.90
6114;DHT22;3087;48.392;10.836;2022-08-19T12:58:11;19.80;99.90
6114;DHT22;3087;48.392;10.836;2022-08-19T13:00:38;19.90;99.90
6114;DHT22;3087;48.392;10.836;2022-08-19T13:03:04;19.90;99.90
6114;DHT22;3087;48.392;10.836;2022-08-19T13:05:31;20.00;99.90
6114;DHT22;3087;48.392;10.836;2022-08-19T13:07:59;20.00;99.90
6114;DHT22;3087;48.392;10.836;2022-08-19T13:10:31;20.10;99.90
6114;DHT22;3087;48.392;10.836;2022-08-19T13:13:00;20.20;99.90
6114;DHT22;3087;48.392;10.836;2022-08-19T13:15:28;20.20;99.90
6114;DHT22;3087;48.392;10.836;2022-08-19T13:17:54;20.30;99.90
6114;DHT22;3087;48.392;10.836;2022-08-19T13:20:21;20.30;99.90
6114;DHT22;3087;48.392;10.836;2022-08-19T13:22:48;20.40;99.90
6114;DHT22;3087;48.392;10.836;2022-08-19T13:25:16;21.40;99.90
6114;DHT22;3087;48.392;10.836;2022-08-19T13:27:43;20.50;99.90
6114;DHT22;3087;48.392;10.836;2022-08-19T13:30:11;20.50;99.90
6114;DHT22;3087;48.392;10.836;2022-08-19T13:32:56;20.60;99.90
6114;DHT22;3087;48.392;10.836;2022-08-19T13:35:38;20.50;99.90
6114;DHT22;3087;48.392;10.836;2022-08-19T13:38:04;20.50;99.90
6114;DHT22;3087;48.392;10.836;2022-08-19T13:40:31;20.50;99.90
6114;DHT22;3087;48.392;10.836;2022-08-19T13:43:00;20.50;99.90
6114;DHT22;3087;48.392;10.836;2022-08-19T13:45:27;20.50;99.90
6114;DHT22;3087;48.392;10.836;2022-08-19T13:47:55;20.50;99.90
6114;DHT22;3087;48.392;10.836;2022-08-19T13:50:24;20.50;99.90
6114;DHT22;3087;48.392;10.836;2022-08-19T13:52:54;20.50;99.90
6114;DHT22;3087;48.392;10.836;2022-08-19T13:55:20;20.50;99.90
6114;DHT22;3087;48.392;10.836;2022-08-19T13:57:45;20.50;99.90
6114;DHT22;3087;48.392;10.836;2022-08-19T14:00:17;20.40;99.90
6114;DHT22;3087;48.392;10.836;2022-08-19T14:02:47;20.40;99.90
6114;DHT22;3087;48.392;10.836;2022-08-19T14:05:15;20.40;99.90
6114;DHT22;3087;48.392;10.836;2022-08-19T14:07:41;18.80;99.90
6114;DHT22;3087;48.392;10.836;2022-08-19T14:10:09;20.40;99.90
6114;DHT22;3087;48.392;10.836;2022-08-19T14:12:35;20.40;99.90
6114;DHT22;3087;48.392;10.836;2022-08-19T14:15:02;20.40;99.90
6114;DHT22;3087;48.392;10.836;2022-08-19T14:17:28;20.40;99.90
6114;DHT22;3087;48.392;10.836;2022-08-19T14:20:03;20.40;99.90
6114;DHT22;3087;48.392;10.836;2022-08-19T14:22:33;20.40;99.90
6114;DHT22;3087;48.392;10.836;2022-08-19T14:24:59;20.50;99.90
6114;DHT22;3087;48.392;10.836;2022-08-19T14:27:24;20.50;99.90
6114;DHT22;3087;48.392;10.836;2022-08-19T14:29:52;20.40;99.90
6114;DHT22;3087;48.392;10.836;2022-08-19T14:32:18;20.50;99.90
6114;DHT22;3087;48.392;10.836;2022-08-19T14:34:44;20.50;99.90
6114;DHT22;3087;48.392;10.836;2022-08-19T14:37:13;20.40;99.90
6114;DHT22;3087;48.392;10.836;2022-08-19T14:39:43;20.50;99.90
6114;DHT22;3087;48.392;10.836;2022-08-19T14:42:10;20.50;99.90
6114;DHT22;3087;48.392;10.836;2022-08-19T14:44:37;20.50;99.90
6114;DHT22;3087;48.392;10.836;2022-08-19T14:47:03;20.50;99.90
6114;DHT22;3087;48.392;10.836;2022-08-19T14:49:29;20.50;99.90
6114;DHT22;3087;48.392;10.836;2022-08-19T14:51:55;21.80;99.90
6114;DHT22;3087;48.392;10.836;2022-08-19T14:54:21;20.60;99.90
6114;DHT22;3087;48.392;10.836;2022-08-19T14:56:48;20.60;99.90
6114;DHT22;3087;48.392;10.836;2022-08-19T14:59:14;20.50;99.90
6114;DHT22;3087;48.392;10.836;2022-08-19T15:01:40;20.50;99.90
6114;DHT22;3087;48.392;10.836;2022-08-19T15:04:05;20.50;99.90
6114;DHT22;3087;48.392;10.836;2022-08-19T15:06:31;20.50;99.90
6114;DHT22;3087;48.392;10.836;2022-08-19T15:08:57;20.50;99.90
6114;DHT22;3087;48.392;10.836;2022-08-19T15:11:25;20.40;99.90
6114;DHT22;3087;48.392;10.836;2022-08-19T15:13:54;20.50;99.90
6114;DHT22;3087;48.392;10.836;2022-08-19T15:16:20;20.50;99.90
6114;DHT22;3087;48.392;10.836;2022-08-19T15:18:49;20.50;99.90
6114;DHT22;3087;48.392;10.836;2022-08-19T15:21:16;20.50;99.90
6114;DHT22;3087;48.392;10.836;2022-08-19T15:23:47;20.50;99.90
6114;DHT22;3087;48.392;10.836;2022-08-19T15:26:15;20.50;99.90
6114;DHT22;3087;48.392;10.836;2022-08-19T15:28:42;20.50;99.90
6114;DHT22;3087;48.392;10.836;2022-08-19T15:31:07;20.50;99.90
6114;DHT22;3087;48.392;10.836;2022-08-19T15:33:35;20.50;99.90
6114;DHT22;3087;48.392;10.836;2022-08-19T15:36:05;20.50;99.90
6114;DHT22;3087;48.392;10.836;2022-08-19T15:38:32;20.40;99.90
6114;DHT22;3087;48.392;10.836;2022-08-19T15:41:03;20.50;99.90
6114;DHT22;3087;48.392;10.836;2022-08-19T15:43:52;20.50;99.90
6114;DHT22;3087;48.392;10.836;2022-08-19T15:46:21;20.50;99.90
6114;DHT22;3087;48.392;10.836;2022-08-19T15:48:48;20.50;99.90
6114;DHT22;3087;48.392;10.836;2022-08-19T15:51:15;20.50;99.90
6114;DHT22;3087;48.392;10.836;2022-08-19T15:53:41;20.40;99.90
6114;DHT22;3087;48.392;10.836;2022-08-19T15:56:07;20.40;99.90
6114;DHT22;3087;48.392;10.836;2022-08-19T15:58:33;20.40;99.90
6114;DHT22;3087;48.392;10.836;2022-08-19T16:01:18;20.40;99.90
6114;DHT22;3087;48.392;10.836;2022-08-19T16:04:13;20.40;99.90
6114;DHT22;3087;48.392;10.836;2022-08-19T16:06:59;20.30;99.90
6114;DHT22;3087;48.392;10.836;2022-08-19T16:09:27;20.40;99.90
6114;DHT22;3087;48.392;10.836;2022-08-19T16:12:02;20.50;99.90